sensor_id;sensor_type;location;lat;lon;timestamp;P1;durP1;ratioP1;P2;durP2;ratioP2
8871;SDS011;4472;52.092;9.820;2022-11-20T00:01:32;33.37;;;17.30;;
8871;SDS011;4472;52.092;9.820;2022-11-20T00:04:23;35.10;;;18.73;;
8871;SDS011;4472;52.092;9.820;2022-11-20T00:07:14;32.90;;;17.20;;
8871;SDS011;4472;52.092;9.820;2022-11-20T00:10:04;28.77;;;15.77;;
8871;SDS011;4472;52.092;9.820;2022-11-20T00:12:53;26.27;;;14.77;;
8871;SDS011;4472;52.092;9.820;2022-11-20T00:15:42;25.13;;;14.07;;
8871;SDS011;4472;52.092;9.820;2022-11-20T00:18:32;21.33;;;13.23;;
8871;SDS011;4472;52.092;9.820;2022-11-20T00:21:23;20.27;;;12.70;;
8871;SDS011;4472;52.092;9.820;2022-11-20T00:24:12;23.63;;;13.43;;
8871;SDS011;4472;52.092;9.820;2022-11-20T00:27:00;42.63;;;18.60;;
8871;SDS011;4472;52.092;9.820;2022-11-20T00:29:49;32.10;;;16.53;;
8871;SDS011;4472;52.092;9.820;2022-11-20T00:32:38;35.17;;;17.00;;
8871;SDS011;4472;52.092;9.820;2022-11-20T00:35:26;27.03;;;15.40;;
8871;SDS011;4472;52.092;9.820;2022-11-20T00:38:16;30.37;;;17.67;;
8871;SDS011;4472;52.092;9.820;2022-11-20T00:41:06;36.33;;;20.10;;
8871;SDS011;4472;52.092;9.820;2022-11-20T00:43:55;24.83;;;14.20;;
8871;SDS011;4472;52.092;9.820;2022-11-20T00:46:44;25.73;;;15.87;;
8871;SDS011;4472;52.092;9.820;2022-11-20T00:49:33;22.57;;;13.33;;
8871;SDS011;4472;52.092;9.820;2022-11-20T00:52:21;19.60;;;11.63;;
8871;SDS011;4472;52.092;9.820;2022-11-20T00:55:11;17.77;;;10.63;;
8871;SDS011;4472;52.092;9.820;2022-11-20T00:58:00;17.60;;;10.00;;
8871;SDS011;4472;52.092;9.820;2022-11-20T01:00:49;17.73;;;10.70;;
8871;SDS011;4472;52.092;9.820;2022-11-20T01:03:39;17.37;;;10.43;;
8871;SDS011;4472;52.092;9.820;2022-11-20T01:06:29;18.23;;;10.60;;
8871;SDS011;4472;52.092;9.820;2022-11-20T01:09:18;16.53;;;10.10;;
8871;SDS011;4472;52.092;9.820;2022-11-20T01:12:08;15.67;;;9.70;;
8871;SDS011;4472;52.092;9.820;2022-11-20T01:14:57;15.57;;;9.90;;
8871;SDS011;4472;52.092;9.820;2022-11-20T01:17:45;17.07;;;9.93;;
8871;SDS011;4472;52.092;9.820;2022-11-20T01:20:34;16.43;;;9.57;;
8871;SDS011;4472;52.092;9.820;2022-11-20T01:23:22;16.57;;;9.93;;
8871;SDS011;4472;52.092;9.820;2022-11-20T01:26:12;18.60;;;10.20;;
8871;SDS011;4472;52.092;9.820;2022-11-20T01:29:02;13.80;;;8.97;;
8871;SDS011;4472;52.092;9.820;2022-11-20T01:31:52;18.93;;;9.33;;
8871;SDS011;4472;52.092;9.820;2022-11-20T01:34:40;15.70;;;10.07;;
8871;SDS011;4472;52.092;9.820;2022-11-20T01:37:29;20.53;;;10.17;;
8871;SDS011;4472;52.092;9.820;2022-11-20T01:40:18;15.70;;;9.30;;
8871;SDS011;4472;52.092;9.820;2022-11-20T01:43:09;19.27;;;10.70;;
8871;SDS011;4472;52.092;9.820;2022-11-20T01:46:17;16.83;;;10.33;;
8871;SDS011;4472;52.092;9.820;2022-11-20T01:49:08;14.53;;;9.63;;
8871;SDS011;4472;52.092;9.820;2022-11-20T01:51:59;19.23;;;10.47;;
8871;SDS011;4472;52.092;9.820;2022-11-20T01:54:50;17.33;;;9.53;;
8871;SDS011;4472;52.092;9.820;2022-11-20T01:57:40;19.57;;;10.07;;
8871;SDS011;4472;52.092;9.820;2022-11-20T02:00:29;16.30;;;9.63;;
8871;SDS011;4472;52.092;9.820;2022-11-20T02:03:20;16.20;;;9.50;;
8871;SDS011;4472;52.092;9.820;2022-11-20T02:06:10;17.37;;;9.87;;
8871;SDS011;4472;52.092;9.820;2022-11-20T02:09:00;16.90;;;9.77;;
8871;SDS011;4472;52.092;9.820;2022-11-20T02:11:49;16.87;;;9.63;;
8871;SDS011;4472;52.092;9.820;2022-11-20T02:14:37;17.00;;;10.27;;
8871;SDS011;4472;52.092;9.820;2022-11-20T02:17:25;13.70;;;9.07;;
8871;SDS011;4472;52.092;9.820;2022-11-20T02:20:15;16.80;;;9.30;;
8871;SDS011;4472;52.092;9.820;2022-11-20T02:23:05;14.83;;;9.63;;
8871;SDS011;4472;52.092;9.820;2022-11-20T02:25:57;15.60;;;8.37;;
8871;SDS011;4472;52.092;9.820;2022-11-20T02:28:46;14.33;;;8.73;;
8871;SDS011;4472;52.092;9.820;2022-11-20T02:31:40;14.53;;;8.60;;
8871;SDS011;4472;52.092;9.820;2022-11-20T02:34:29;13.50;;;8.33;;
8871;SDS011;4472;52.092;9.820;2022-11-20T02:37:17;14.70;;;8.60;;
8871;SDS011;4472;52.092;9.820;2022-11-20T02:40:07;12.27;;;8.13;;
8871;SDS011;4472;52.092;9.820;2022-11-20T02:42:59;12.40;;;7.50;;
8871;SDS011;4472;52.092;9.820;2022-11-20T02:45:49;13.67;;;8.27;;
8871;SDS011;4472;52.092;9.820;2022-11-20T02:48:39;13.93;;;8.23;;
8871;SDS011;4472;52.092;9.820;2022-11-20T02:51:30;15.37;;;8.67;;
8871;SDS011;4472;52.092;9.820;2022-11-20T02:54:21;12.63;;;8.37;;
8871;SDS011;4472;52.092;9.820;2022-11-20T02:57:11;13.87;;;8.47;;
8871;SDS011;4472;52.092;9.820;2022-11-20T03:00:03;14.57;;;8.40;;
8871;SDS011;4472;52.092;9.820;2022-11-20T03:02:54;14.80;;;8.90;;
8871;SDS011;4472;52.092;9.820;2022-11-20T03:05:44;14.93;;;9.53;;
8871;SDS011;4472;52.092;9.820;2022-11-20T03:08:35;16.27;;;9.40;;
8871;SDS011;4472;52.092;9.820;2022-11-20T03:11:25;15.93;;;9.13;;
8871;SDS011;4472;52.092;9.820;2022-11-20T03:14:16;13.37;;;9.13;;
8871;SDS011;4472;52.092;9.820;2022-11-20T03:17:07;13.97;;;8.77;;
8871;SDS011;4472;52.092;9.820;2022-11-20T03:19:58;14.93;;;9.00;;
8871;SDS011;4472;52.092;9.820;2022-11-20T03:22:48;15.60;;;9.23;;
8871;SDS011;4472;52.092;9.820;2022-11-20T03:25:39;17.00;;;8.63;;
8871;SDS011;4472;52.092;9.820;2022-11-20T03:28:27;14.50;;;8.27;;
8871;SDS011;4472;52.092;9.820;2022-11-20T03:31:18;14.50;;;8.67;;
8871;SDS011;4472;52.092;9.820;2022-11-20T03:34:10;15.40;;;9.40;;
8871;SDS011;4472;52.092;9.820;2022-11-20T03:37:01;14.80;;;8.70;;
8871;SDS011;4472;52.092;9.820;2022-11-20T03:39:51;17.87;;;8.83;;
8871;SDS011;4472;52.092;9.820;2022-11-20T03:42:42;14.13;;;8.80;;
8871;SDS011;4472;52.092;9.820;2022-11-20T03:45:32;13.60;;;8.03;;
8871;SDS011;4472;52.092;9.820;2022-11-20T03:48:22;14.30;;;8.10;;
8871;SDS011;4472;52.092;9.820;2022-11-20T03:51:13;12.33;;;7.27;;
8871;SDS011;4472;52.092;9.820;2022-11-20T03:54:06;13.27;;;7.80;;
8871;SDS011;4472;52.092;9.820;2022-11-20T03:56:56;10.97;;;7.23;;
8871;SDS011;4472;52.092;9.820;2022-11-20T03:59:47;11.00;;;7.13;;
8871;SDS011;4472;52.092;9.820;2022-11-20T04:02:38;13.77;;;7.90;;
8871;SDS011;4472;52.092;9.820;2022-11-20T04:05:28;17.63;;;10.50;;
8871;SDS011;4472;52.092;9.820;2022-11-20T04:08:20;14.70;;;9.13;;
8871;SDS011;4472;52.092;9.820;2022-11-20T04:11:12;14.27;;;8.93;;
8871;SDS011;4472;52.092;9.820;2022-11-20T04:14:03;14.17;;;8.33;;
8871;SDS011;4472;52.092;9.820;2022-11-20T04:16:54;14.37;;;8.50;;
8871;SDS011;4472;52.092;9.820;2022-11-20T04:19:45;13.17;;;8.40;;
8871;SDS011;4472;52.092;9.820;2022-11-20T04:22:37;16.10;;;9.10;;
8871;SDS011;4472;52.092;9.820;2022-11-20T04:25:29;12.90;;;8.10;;
8871;SDS011;4472;52.092;9.820;2022-11-20T04:28:19;12.00;;;7.80;;
8871;SDS011;4472;52.092;9.820;2022-11-20T04:31:11;11.30;;;6.90;;
8871;SDS011;4472;52.092;9.820;2022-11-20T04:34:03;11.03;;;6.97;;
8871;SDS011;4472;52.092;9.820;2022-11-20T04:36:54;13.13;;;7.20;;
8871;SDS011;4472;52.092;9.820;2022-11-20T04:39:44;12.47;;;7.37;;
8871;SDS011;4472;52.092;9.820;2022-11-20T04:42:37;11.63;;;6.93;;
8871;SDS011;4472;52.092;9.820;2022-11-20T04:45:27;11.60;;;7.17;;
8871;SDS011;4472;52.092;9.820;2022-11-20T04:48:18;9.40;;;6.40;;
8871;SDS011;4472;52.092;9.820;2022-11-20T04:51:09;10.97;;;6.60;;
8871;SDS011;4472;52.092;9.820;2022-11-20T04:54:00;11.67;;;6.70;;
8871;SDS011;4472;52.092;9.820;2022-11-20T04:56:50;10.73;;;7.43;;
8871;SDS011;4472;52.092;9.820;2022-11-20T04:59:43;11.33;;;6.93;;
8871;SDS011;4472;52.092;9.820;2022-11-20T05:02:34;10.83;;;7.23;;
8871;SDS011;4472;52.092;9.820;2022-11-20T05:05:27;11.43;;;7.00;;
8871;SDS011;4472;52.092;9.820;2022-11-20T05:08:18;11.73;;;7.57;;
8871;SDS011;4472;52.092;9.820;2022-11-20T05:11:09;14.67;;;8.13;;
8871;SDS011;4472;52.092;9.820;2022-11-20T05:14:00;13.80;;;7.90;;
8871;SDS011;4472;52.092;9.820;2022-11-20T05:16:52;15.83;;;8.73;;
8871;SDS011;4472;52.092;9.820;2022-11-20T05:19:43;12.97;;;8.30;;
8871;SDS011;4472;52.092;9.820;2022-11-20T05:22:34;14.07;;;8.63;;
8871;SDS011;4472;52.092;9.820;2022-11-20T05:25:24;17.53;;;9.47;;
8871;SDS011;4472;52.092;9.820;2022-11-20T05:28:15;12.90;;;8.27;;
8871;SDS011;4472;52.092;9.820;2022-11-20T05:31:06;16.23;;;9.50;;
8871;SDS011;4472;52.092;9.820;2022-11-20T05:33:59;13.90;;;8.23;;
8871;SDS011;4472;52.092;9.820;2022-11-20T05:36:49;12.73;;;7.80;;
8871;SDS011;4472;52.092;9.820;2022-11-20T05:39:40;12.60;;;7.63;;
8871;SDS011;4472;52.092;9.820;2022-11-20T05:42:31;13.63;;;7.53;;
8871;SDS011;4472;52.092;9.820;2022-11-20T05:45:22;11.63;;;7.50;;
8871;SDS011;4472;52.092;9.820;2022-11-20T05:48:13;12.60;;;7.87;;
8871;SDS011;4472;52.092;9.820;2022-11-20T05:51:06;13.50;;;8.17;;
8871;SDS011;4472;52.092;9.820;2022-11-20T05:53:57;13.07;;;8.43;;
8871;SDS011;4472;52.092;9.820;2022-11-20T05:56:48;11.67;;;8.10;;
8871;SDS011;4472;52.092;9.820;2022-11-20T05:59:38;14.80;;;8.37;;
8871;SDS011;4472;52.092;9.820;2022-11-20T06:02:29;12.17;;;8.23;;
8871;SDS011;4472;52.092;9.820;2022-11-20T06:05:20;14.87;;;9.77;;
8871;SDS011;4472;52.092;9.820;2022-11-20T06:08:12;17.90;;;10.17;;
8871;SDS011;4472;52.092;9.820;2022-11-20T06:11:05;22.13;;;11.90;;
8871;SDS011;4472;52.092;9.820;2022-11-20T06:13:58;22.07;;;12.67;;
8871;SDS011;4472;52.092;9.820;2022-11-20T06:16:51;20.47;;;12.60;;
8871;SDS011;4472;52.092;9.820;2022-11-20T06:19:44;23.23;;;13.70;;
8871;SDS011;4472;52.092;9.820;2022-11-20T06:22:43;19.97;;;12.50;;
8871;SDS011;4472;52.092;9.820;2022-11-20T06:25:47;25.60;;;14.17;;
8871;SDS011;4472;52.092;9.820;2022-11-20T06:28:53;24.13;;;14.00;;
8871;SDS011;4472;52.092;9.820;2022-11-20T06:31:56;23.27;;;13.50;;
8871;SDS011;4472;52.092;9.820;2022-11-20T06:35:16;24.07;;;13.50;;
8871;SDS011;4472;52.092;9.820;2022-11-20T06:38:45;23.60;;;12.97;;
8871;SDS011;4472;52.092;9.820;2022-11-20T06:42:16;22.07;;;13.07;;
8871;SDS011;4472;52.092;9.820;2022-11-20T06:45:46;22.23;;;13.47;;
8871;SDS011;4472;52.092;9.820;2022-11-20T06:49:15;24.03;;;15.33;;
8871;SDS011;4472;52.092;9.820;2022-11-20T06:52:46;24.57;;;14.53;;
8871;SDS011;4472;52.092;9.820;2022-11-20T06:56:16;21.50;;;13.83;;
8871;SDS011;4472;52.092;9.820;2022-11-20T06:59:48;23.10;;;13.17;;
8871;SDS011;4472;52.092;9.820;2022-11-20T07:03:19;21.93;;;13.00;;
8871;SDS011;4472;52.092;9.820;2022-11-20T07:06:50;23.00;;;13.67;;
8871;SDS011;4472;52.092;9.820;2022-11-20T07:10:13;21.83;;;13.13;;
8871;SDS011;4472;52.092;9.820;2022-11-20T07:13:30;27.10;;;14.40;;
8871;SDS011;4472;52.092;9.820;2022-11-20T07:16:27;25.60;;;15.90;;
8871;SDS011;4472;52.092;9.820;2022-11-20T07:19:57;24.90;;;15.30;;
8871;SDS011;4472;52.092;9.820;2022-11-20T07:22:52;24.60;;;14.90;;
8871;SDS011;4472;52.092;9.820;2022-11-20T07:26:24;23.73;;;14.90;;
8871;SDS011;4472;52.092;9.820;2022-11-20T07:29:56;21.77;;;13.20;;
8871;SDS011;4472;52.092;9.820;2022-11-20T07:33:30;19.77;;;12.30;;
8871;SDS011;4472;52.092;9.820;2022-11-20T07:37:02;21.57;;;14.20;;
8871;SDS011;4472;52.092;9.820;2022-11-20T07:40:34;20.80;;;13.17;;
8871;SDS011;4472;52.092;9.820;2022-11-20T07:43:28;22.50;;;13.93;;
8871;SDS011;4472;52.092;9.820;2022-11-20T07:47:00;26.27;;;15.47;;
8871;SDS011;4472;52.092;9.820;2022-11-20T07:49:58;24.53;;;16.17;;
8871;SDS011;4472;52.092;9.820;2022-11-20T07:53:29;24.80;;;14.23;;
8871;SDS011;4472;52.092;9.820;2022-11-20T07:56:28;23.47;;;14.07;;
8871;SDS011;4472;52.092;9.820;2022-11-20T07:59:38;20.80;;;13.50;;
8871;SDS011;4472;52.092;9.820;2022-11-20T08:02:36;19.73;;;13.30;;
8871;SDS011;4472;52.092;9.820;2022-11-20T08:06:11;25.67;;;16.60;;
8871;SDS011;4472;52.092;9.820;2022-11-20T08:09:45;21.20;;;14.93;;
8871;SDS011;4472;52.092;9.820;2022-11-20T08:12:49;22.00;;;14.47;;
8871;SDS011;4472;52.092;9.820;2022-11-20T08:16:41;19.60;;;12.63;;
8871;SDS011;4472;52.092;9.820;2022-11-20T08:19:46;18.70;;;12.53;;
8871;SDS011;4472;52.092;9.820;2022-11-20T08:23:22;22.27;;;14.47;;
8871;SDS011;4472;52.092;9.820;2022-11-20T08:26:56;130.60;;;47.40;;
8871;SDS011;4472;52.092;9.820;2022-11-20T08:30:24;93.27;;;44.57;;
8871;SDS011;4472;52.092;9.820;2022-11-20T08:33:59;24.03;;;15.03;;
8871;SDS011;4472;52.092;9.820;2022-11-20T08:36:58;19.87;;;12.60;;
8871;SDS011;4472;52.092;9.820;2022-11-20T08:40:34;42.90;;;18.77;;
8871;SDS011;4472;52.092;9.820;2022-11-20T08:44:12;18.70;;;12.60;;
8871;SDS011;4472;52.092;9.820;2022-11-20T08:47:09;22.80;;;14.03;;
8871;SDS011;4472;52.092;9.820;2022-11-20T08:49:57;24.93;;;13.90;;
8871;SDS011;4472;52.092;9.820;2022-11-20T08:52:44;23.17;;;14.00;;
8871;SDS011;4472;52.092;9.820;2022-11-20T08:55:32;22.17;;;13.37;;
8871;SDS011;4472;52.092;9.820;2022-11-20T08:58:23;30.33;;;17.00;;
8871;SDS011;4472;52.092;9.820;2022-11-20T09:01:11;25.23;;;15.33;;
8871;SDS011;4472;52.092;9.820;2022-11-20T09:03:59;21.50;;;13.40;;
8871;SDS011;4472;52.092;9.820;2022-11-20T09:06:47;18.40;;;13.03;;
8871;SDS011;4472;52.092;9.820;2022-11-20T09:09:36;23.30;;;14.27;;
8871;SDS011;4472;52.092;9.820;2022-11-20T09:12:23;21.93;;;14.00;;
8871;SDS011;4472;52.092;9.820;2022-11-20T09:15:12;28.80;;;17.50;;
8871;SDS011;4472;52.092;9.820;2022-11-20T09:18:01;30.43;;;18.33;;
8871;SDS011;4472;52.092;9.820;2022-11-20T09:20:49;24.00;;;15.20;;
8871;SDS011;4472;52.092;9.820;2022-11-20T09:23:37;22.00;;;14.77;;
8871;SDS011;4472;52.092;9.820;2022-11-20T09:26:24;20.20;;;14.07;;
8871;SDS011;4472;52.092;9.820;2022-11-20T09:29:12;21.00;;;13.37;;
8871;SDS011;4472;52.092;9.820;2022-11-20T09:32:01;21.77;;;14.20;;
8871;SDS011;4472;52.092;9.820;2022-11-20T09:34:48;24.73;;;13.93;;
8871;SDS011;4472;52.092;9.820;2022-11-20T09:37:39;19.87;;;12.77;;
8871;SDS011;4472;52.092;9.820;2022-11-20T09:40:27;22.87;;;14.57;;
8871;SDS011;4472;52.092;9.820;2022-11-20T09:43:16;20.93;;;13.43;;
8871;SDS011;4472;52.092;9.820;2022-11-20T09:46:07;21.03;;;13.00;;
8871;SDS011;4472;52.092;9.820;2022-11-20T09:49:02;20.73;;;13.53;;
8871;SDS011;4472;52.092;9.820;2022-11-20T09:51:56;22.03;;;13.40;;
8871;SDS011;4472;52.092;9.820;2022-11-20T09:54:44;23.27;;;13.77;;
8871;SDS011;4472;52.092;9.820;2022-11-20T09:57:32;19.60;;;12.77;;
8871;SDS011;4472;52.092;9.820;2022-11-20T10:00:22;22.53;;;13.43;;
8871;SDS011;4472;52.092;9.820;2022-11-20T10:03:11;22.83;;;13.93;;
8871;SDS011;4472;52.092;9.820;2022-11-20T10:06:01;20.30;;;13.63;;
8871;SDS011;4472;52.092;9.820;2022-11-20T10:08:51;20.67;;;13.10;;
8871;SDS011;4472;52.092;9.820;2022-11-20T10:11:45;19.87;;;13.40;;
8871;SDS011;4472;52.092;9.820;2022-11-20T10:14:36;20.97;;;13.33;;
8871;SDS011;4472;52.092;9.820;2022-11-20T10:17:29;20.07;;;13.70;;
8871;SDS011;4472;52.092;9.820;2022-11-20T10:20:19;20.60;;;14.40;;
8871;SDS011;4472;52.092;9.820;2022-11-20T10:23:19;20.43;;;13.27;;
8871;SDS011;4472;52.092;9.820;2022-11-20T10:26:14;20.10;;;13.60;;
8871;SDS011;4472;52.092;9.820;2022-11-20T10:29:08;19.43;;;12.90;;
8871;SDS011;4472;52.092;9.820;2022-11-20T10:32:01;18.93;;;12.63;;
8871;SDS011;4472;52.092;9.820;2022-11-20T10:34:50;18.53;;;12.97;;
8871;SDS011;4472;52.092;9.820;2022-11-20T10:37:40;18.17;;;11.80;;
8871;SDS011;4472;52.092;9.820;2022-11-20T10:40:33;15.60;;;11.13;;
8871;SDS011;4472;52.092;9.820;2022-11-20T10:43:23;14.40;;;10.80;;
8871;SDS011;4472;52.092;9.820;2022-11-20T10:46:15;17.03;;;11.40;;
8871;SDS011;4472;52.092;9.820;2022-11-20T10:49:04;17.43;;;12.13;;
8871;SDS011;4472;52.092;9.820;2022-11-20T10:51:56;15.47;;;9.83;;
8871;SDS011;4472;52.092;9.820;2022-11-20T10:54:47;13.63;;;9.90;;
8871;SDS011;4472;52.092;9.820;2022-11-20T10:57:41;14.70;;;9.87;;
8871;SDS011;4472;52.092;9.820;2022-11-20T11:00:32;12.90;;;9.17;;
8871;SDS011;4472;52.092;9.820;2022-11-20T11:03:20;15.30;;;10.47;;
8871;SDS011;4472;52.092;9.820;2022-11-20T11:06:10;17.00;;;11.10;;
8871;SDS011;4472;52.092;9.820;2022-11-20T11:09:01;15.73;;;10.50;;
8871;SDS011;4472;52.092;9.820;2022-11-20T11:11:49;14.37;;;9.93;;
8871;SDS011;4472;52.092;9.820;2022-11-20T11:17:47;17.17;;;10.70;;
8871;SDS011;4472;52.092;9.820;2022-11-20T11:20:34;14.30;;;9.50;;
8871;SDS011;4472;52.092;9.820;2022-11-20T11:23:26;14.80;;;10.07;;
8871;SDS011;4472;52.092;9.820;2022-11-20T11:26:18;13.10;;;9.10;;
8871;SDS011;4472;52.092;9.820;2022-11-20T11:29:15;14.53;;;9.97;;
8871;SDS011;4472;52.092;9.820;2022-11-20T11:32:04;13.40;;;9.70;;
8871;SDS011;4472;52.092;9.820;2022-11-20T11:35:04;17.00;;;9.83;;
8871;SDS011;4472;52.092;9.820;2022-11-20T11:37:52;13.80;;;9.67;;
8871;SDS011;4472;52.092;9.820;2022-11-20T11:40:41;12.30;;;9.67;;
8871;SDS011;4472;52.092;9.820;2022-11-20T11:43:29;13.77;;;9.57;;
8871;SDS011;4472;52.092;9.820;2022-11-20T11:46:35;13.53;;;9.63;;
8871;SDS011;4472;52.092;9.820;2022-11-20T11:49:23;12.80;;;9.17;;
8871;SDS011;4472;52.092;9.820;2022-11-20T11:52:13;13.90;;;9.70;;
8871;SDS011;4472;52.092;9.820;2022-11-20T11:55:03;12.67;;;9.13;;
8871;SDS011;4472;52.092;9.820;2022-11-20T11:57:57;12.60;;;9.10;;
8871;SDS011;4472;52.092;9.820;2022-11-20T12:00:51;14.33;;;9.63;;
8871;SDS011;4472;52.092;9.820;2022-11-20T12:03:42;14.23;;;10.07;;
8871;SDS011;4472;52.092;9.820;2022-11-20T12:06:32;15.73;;;9.97;;
8871;SDS011;4472;52.092;9.820;2022-11-20T12:09:23;13.63;;;10.23;;
8871;SDS011;4472;52.092;9.820;2022-11-20T12:12:12;14.90;;;10.03;;
8871;SDS011;4472;52.092;9.820;2022-11-20T12:15:02;14.33;;;9.33;;
8871;SDS011;4472;52.092;9.820;2022-11-20T12:17:51;13.23;;;9.37;;
8871;SDS011;4472;52.092;9.820;2022-11-20T12:20:40;14.83;;;9.33;;
8871;SDS011;4472;52.092;9.820;2022-11-20T12:23:31;16.00;;;10.83;;
8871;SDS011;4472;52.092;9.820;2022-11-20T12:26:27;14.73;;;10.87;;
8871;SDS011;4472;52.092;9.820;2022-11-20T12:29:19;16.37;;;10.80;;
8871;SDS011;4472;52.092;9.820;2022-11-20T12:32:24;17.03;;;10.50;;
8871;SDS011;4472;52.092;9.820;2022-11-20T12:35:25;15.30;;;9.57;;
8871;SDS011;4472;52.092;9.820;2022-11-20T12:41:24;16.90;;;10.67;;
8871;SDS011;4472;52.092;9.820;2022-11-20T12:44:39;16.37;;;11.03;;
8871;SDS011;4472;52.092;9.820;2022-11-20T12:47:59;13.63;;;9.50;;
8871;SDS011;4472;52.092;9.820;2022-11-20T12:50:52;14.57;;;10.13;;
8871;SDS011;4472;52.092;9.820;2022-11-20T12:53:50;13.00;;;10.00;;
8871;SDS011;4472;52.092;9.820;2022-11-20T12:56:42;13.20;;;9.70;;
8871;SDS011;4472;52.092;9.820;2022-11-20T12:59:33;16.33;;;9.67;;
8871;SDS011;4472;52.092;9.820;2022-11-20T13:02:35;14.17;;;9.30;;
8871;SDS011;4472;52.092;9.820;2022-11-20T13:05:27;14.33;;;9.27;;
8871;SDS011;4472;52.092;9.820;2022-11-20T13:08:18;13.97;;;9.60;;
8871;SDS011;4472;52.092;9.820;2022-11-20T13:11:08;11.87;;;9.00;;
8871;SDS011;4472;52.092;9.820;2022-11-20T13:14:02;13.17;;;9.00;;
8871;SDS011;4472;52.092;9.820;2022-11-20T13:16:52;12.83;;;8.70;;
8871;SDS011;4472;52.092;9.820;2022-11-20T13:19:43;13.77;;;9.23;;
8871;SDS011;4472;52.092;9.820;2022-11-20T13:22:42;13.60;;;9.57;;
8871;SDS011;4472;52.092;9.820;2022-11-20T13:25:30;12.23;;;8.77;;
8871;SDS011;4472;52.092;9.820;2022-11-20T13:28:27;13.60;;;9.53;;
8871;SDS011;4472;52.092;9.820;2022-11-20T13:31:24;13.63;;;9.43;;
8871;SDS011;4472;52.092;9.820;2022-11-20T13:34:23;13.47;;;8.80;;
8871;SDS011;4472;52.092;9.820;2022-11-20T13:37:25;13.07;;;9.10;;
8871;SDS011;4472;52.092;9.820;2022-11-20T13:40:19;11.97;;;8.63;;
8871;SDS011;4472;52.092;9.820;2022-11-20T13:43:10;12.23;;;8.80;;
8871;SDS011;4472;52.092;9.820;2022-11-20T13:46:02;12.50;;;8.80;;
8871;SDS011;4472;52.092;9.820;2022-11-20T13:48:51;15.53;;;8.87;;
8871;SDS011;4472;52.092;9.820;2022-11-20T13:51:41;13.27;;;9.07;;
8871;SDS011;4472;52.092;9.820;2022-11-20T13:54:50;14.30;;;9.00;;
8871;SDS011;4472;52.092;9.820;2022-11-20T13:58:01;14.13;;;9.73;;
8871;SDS011;4472;52.092;9.820;2022-11-20T14:00:51;11.80;;;8.87;;
8871;SDS011;4472;52.092;9.820;2022-11-20T14:03:42;14.10;;;9.43;;
8871;SDS011;4472;52.092;9.820;2022-11-20T14:06:30;13.07;;;9.10;;
8871;SDS011;4472;52.092;9.820;2022-11-20T14:09:25;11.80;;;8.63;;
8871;SDS011;4472;52.092;9.820;2022-11-20T14:12:15;13.57;;;8.73;;
8871;SDS011;4472;52.092;9.820;2022-11-20T14:15:04;11.93;;;8.70;;
8871;SDS011;4472;52.092;9.820;2022-11-20T14:17:51;12.83;;;8.90;;
8871;SDS011;4472;52.092;9.820;2022-11-20T14:20:39;13.67;;;8.70;;
8871;SDS011;4472;52.092;9.820;2022-11-20T14:23:27;15.03;;;9.00;;
8871;SDS011;4472;52.092;9.820;2022-11-20T14:26:14;13.50;;;9.50;;
8871;SDS011;4472;52.092;9.820;2022-11-20T14:29:10;13.90;;;9.50;;
8871;SDS011;4472;52.092;9.820;2022-11-20T14:31:58;14.10;;;9.07;;
8871;SDS011;4472;52.092;9.820;2022-11-20T14:34:47;12.47;;;9.20;;
8871;SDS011;4472;52.092;9.820;2022-11-20T14:37:36;12.33;;;9.03;;
8871;SDS011;4472;52.092;9.820;2022-11-20T14:40:25;11.83;;;8.77;;
8871;SDS011;4472;52.092;9.820;2022-11-20T14:43:17;16.20;;;9.77;;
8871;SDS011;4472;52.092;9.820;2022-11-20T14:46:07;12.23;;;8.63;;
8871;SDS011;4472;52.092;9.820;2022-11-20T14:48:55;13.23;;;9.17;;
8871;SDS011;4472;52.092;9.820;2022-11-20T14:51:43;15.57;;;9.20;;
8871;SDS011;4472;52.092;9.820;2022-11-20T14:54:31;13.87;;;9.07;;
8871;SDS011;4472;52.092;9.820;2022-11-20T14:57:20;17.33;;;9.43;;
8871;SDS011;4472;52.092;9.820;2022-11-20T15:00:17;13.70;;;9.80;;
8871;SDS011;4472;52.092;9.820;2022-11-20T15:03:14;15.57;;;10.97;;
8871;SDS011;4472;52.092;9.820;2022-11-20T15:06:03;19.13;;;14.00;;
8871;SDS011;4472;52.092;9.820;2022-11-20T15:08:50;18.63;;;14.80;;
8871;SDS011;4472;52.092;9.820;2022-11-20T15:11:38;21.67;;;14.53;;
8871;SDS011;4472;52.092;9.820;2022-11-20T15:14:26;22.47;;;14.20;;
8871;SDS011;4472;52.092;9.820;2022-11-20T15:17:14;21.63;;;13.50;;
8871;SDS011;4472;52.092;9.820;2022-11-20T15:20:03;20.10;;;12.60;;
8871;SDS011;4472;52.092;9.820;2022-11-20T15:22:55;18.97;;;12.93;;
8871;SDS011;4472;52.092;9.820;2022-11-20T15:25:43;21.77;;;13.87;;
8871;SDS011;4472;52.092;9.820;2022-11-20T15:28:31;24.47;;;14.67;;
8871;SDS011;4472;52.092;9.820;2022-11-20T15:31:21;22.90;;;14.27;;
8871;SDS011;4472;52.092;9.820;2022-11-20T15:34:09;36.03;;;21.60;;
8871;SDS011;4472;52.092;9.820;2022-11-20T15:36:59;36.37;;;22.23;;
8871;SDS011;4472;52.092;9.820;2022-11-20T15:39:47;24.83;;;14.23;;
8871;SDS011;4472;52.092;9.820;2022-11-20T15:42:34;24.83;;;13.83;;
8871;SDS011;4472;52.092;9.820;2022-11-20T15:45:22;24.67;;;14.00;;
8871;SDS011;4472;52.092;9.820;2022-11-20T15:48:10;20.13;;;13.77;;
8871;SDS011;4472;52.092;9.820;2022-11-20T15:50:59;22.40;;;14.23;;
8871;SDS011;4472;52.092;9.820;2022-11-20T15:53:49;23.30;;;14.53;;
8871;SDS011;4472;52.092;9.820;2022-11-20T15:56:37;21.27;;;13.63;;
8871;SDS011;4472;52.092;9.820;2022-11-20T15:59:24;22.37;;;14.03;;
8871;SDS011;4472;52.092;9.820;2022-11-20T16:02:12;21.97;;;13.77;;
8871;SDS011;4472;52.092;9.820;2022-11-20T16:04:59;22.87;;;14.93;;
8871;SDS011;4472;52.092;9.820;2022-11-20T16:07:47;23.40;;;13.67;;
8871;SDS011;4472;52.092;9.820;2022-11-20T16:10:36;24.17;;;14.37;;
8871;SDS011;4472;52.092;9.820;2022-11-20T16:13:24;24.33;;;14.20;;
8871;SDS011;4472;52.092;9.820;2022-11-20T16:16:29;22.53;;;13.30;;
8871;SDS011;4472;52.092;9.820;2022-11-20T16:19:18;25.23;;;14.50;;
8871;SDS011;4472;52.092;9.820;2022-11-20T16:22:05;21.23;;;13.47;;
8871;SDS011;4472;52.092;9.820;2022-11-20T16:24:52;25.20;;;15.33;;
8871;SDS011;4472;52.092;9.820;2022-11-20T16:27:41;26.93;;;15.53;;
8871;SDS011;4472;52.092;9.820;2022-11-20T16:30:29;25.47;;;15.37;;
8871;SDS011;4472;52.092;9.820;2022-11-20T16:33:17;26.03;;;15.53;;
8871;SDS011;4472;52.092;9.820;2022-11-20T16:36:09;27.70;;;15.80;;
8871;SDS011;4472;52.092;9.820;2022-11-20T16:38:57;24.93;;;15.30;;
8871;SDS011;4472;52.092;9.820;2022-11-20T16:41:44;25.90;;;14.60;;
8871;SDS011;4472;52.092;9.820;2022-11-20T16:47:22;28.93;;;15.73;;
8871;SDS011;4472;52.092;9.820;2022-11-20T16:50:09;25.87;;;15.53;;
8871;SDS011;4472;52.092;9.820;2022-11-20T16:52:57;27.40;;;16.13;;
8871;SDS011;4472;52.092;9.820;2022-11-20T16:55:44;28.77;;;15.70;;
8871;SDS011;4472;52.092;9.820;2022-11-20T16:58:32;25.93;;;15.53;;
8871;SDS011;4472;52.092;9.820;2022-11-20T17:01:20;26.70;;;16.40;;
8871;SDS011;4472;52.092;9.820;2022-11-20T17:04:09;25.60;;;15.77;;
8871;SDS011;4472;52.092;9.820;2022-11-20T17:06:57;26.60;;;16.87;;
8871;SDS011;4472;52.092;9.820;2022-11-20T17:09:45;25.63;;;16.50;;
8871;SDS011;4472;52.092;9.820;2022-11-20T17:12:32;28.37;;;17.23;;
8871;SDS011;4472;52.092;9.820;2022-11-20T17:15:20;29.17;;;18.00;;
8871;SDS011;4472;52.092;9.820;2022-11-20T17:18:07;29.60;;;17.37;;
8871;SDS011;4472;52.092;9.820;2022-11-20T17:20:56;26.37;;;15.77;;
8871;SDS011;4472;52.092;9.820;2022-11-20T17:23:45;29.57;;;16.63;;
8871;SDS011;4472;52.092;9.820;2022-11-20T17:26:33;25.87;;;15.77;;
8871;SDS011;4472;52.092;9.820;2022-11-20T17:29:21;24.23;;;15.30;;
8871;SDS011;4472;52.092;9.820;2022-11-20T17:32:08;26.90;;;15.67;;
8871;SDS011;4472;52.092;9.820;2022-11-20T17:34:56;24.87;;;14.80;;
8871;SDS011;4472;52.092;9.820;2022-11-20T17:37:45;23.57;;;15.37;;
8871;SDS011;4472;52.092;9.820;2022-11-20T17:40:33;24.07;;;15.20;;
8871;SDS011;4472;52.092;9.820;2022-11-20T17:43:20;24.17;;;15.57;;
8871;SDS011;4472;52.092;9.820;2022-11-20T17:46:08;24.67;;;14.20;;